createdAt,value
2018-08-03T00:03:00.914Z,98403.64
2018-08-03T00:07:53.922Z,98396.59
2018-08-03T00:12:46.903Z,98385.54
2018-08-03T00:17:41.219Z,98384.50
2018-08-03T00:22:34.811Z,98400.78
2018-08-03T00:27:27.826Z,98385.86
2018-08-03T00:32:20.889Z,98381.69
2018-08-03T00:37:14.181Z,98381.23
2018-08-03T00:42:07.157Z,98369.37
2018-08-03T00:47:00.163Z,98360.55
2018-08-03T00:51:53.270Z,98368.13
2018-08-03T00:56:46.337Z,98349.94
2018-08-03T01:01:39.377Z,98351.05
2018-08-03T01:06:32.349Z,98360.97
2018-08-03T01:11:25.512Z,98332.80
2018-08-03T01:16:18.683Z,98334.63
2018-08-03T01:21:11.663Z,98328.92
2018-08-03T01:26:04.613Z,98319.19
2018-08-03T01:30:57.544Z,98312.62
2018-08-03T01:35:50.530Z,98303.58
2018-08-03T01:40:43.541Z,98303.03
2018-08-03T01:45:37.194Z,98292.14
2018-08-03T01:50:31.234Z,98320.33
2018-08-03T01:55:24.278Z,98284.27
2018-08-03T02:00:17.343Z,98276.73
2018-08-03T02:05:10.427Z,98285.98
2018-08-03T02:10:03.622Z,98293.97
2018-08-03T02:14:56.725Z,98299.80
2018-08-03T02:19:49.690Z,98305.62
2018-08-03T02:24:42.658Z,98296.37
2018-08-03T02:29:35.595Z,98286.69
2018-08-03T02:34:28.595Z,98318.84
2018-08-03T02:39:21.660Z,98308.80
2018-08-03T02:44:14.737Z,98319.95
2018-08-03T02:49:07.940Z,98300.07
2018-08-03T02:54:01.589Z,98325.11
2018-08-03T02:58:54.558Z,98330.47
2018-08-03T03:03:47.702Z,98314.46
2018-08-03T03:08:40.765Z,98317.34
2018-08-03T03:13:33.768Z,98318.16
2018-08-03T03:18:27.098Z,98326.88
2018-08-03T03:23:20.222Z,98335.89
2018-08-03T03:28:13.153Z,98339.74
2018-08-03T03:33:06.247Z,98339.46
2018-08-03T03:37:59.205Z,98330.43
2018-08-03T03:42:52.692Z,98336.47
2018-08-03T03:47:45.619Z,98345.92
2018-08-03T03:52:38.587Z,98348.23
2018-08-03T03:57:31.736Z,98345.20
2018-08-03T04:02:25.113Z,98346.64
2018-08-03T04:07:18.315Z,98345.25
2018-08-03T04:12:11.466Z,98345.20
2018-08-03T04:17:04.499Z,98353.69
2018-08-03T04:21:57.922Z,98350.59
2018-08-03T04:26:50.979Z,98341.33
2018-08-03T04:31:44.116Z,98335.15
2018-08-03T04:36:37.566Z,98341.41
2018-08-03T04:41:31.724Z,98334.83
2018-08-03T04:46:24.728Z,98348.97
2018-08-03T04:51:17.874Z,98350.41
2018-08-03T04:56:10.828Z,98349.13
2018-08-03T05:01:03.975Z,98350.24
2018-08-03T05:05:57.127Z,98353.16
2018-08-03T05:10:50.162Z,98357.61
2018-08-03T05:15:43.405Z,98364.45
2018-08-03T05:20:36.402Z,98378.58
2018-08-03T05:25:29.313Z,98377.92
2018-08-03T05:30:22.438Z,98384.39
2018-08-03T05:35:15.644Z,98389.42
2018-08-03T05:40:08.823Z,98392.11
2018-08-03T05:45:02.019Z,98395.27
2018-08-03T05:49:55.152Z,98381.02
2018-08-03T05:54:48.302Z,98399.90
2018-08-03T05:59:41.624Z,98406.84
2018-08-03T06:04:34.744Z,98405.23
2018-08-03T06:09:27.867Z,98398.74
2018-08-03T06:14:20.858Z,98408.08
2018-08-03T06:19:13.872Z,98405.61
2018-08-03T06:24:07.213Z,98393.11
2018-08-03T06:29:00.552Z,98394.16
2018-08-03T06:33:53.589Z,98403.42
2018-08-03T06:38:46.631Z,98399.36
2018-08-03T06:43:39.730Z,98404.33
2018-08-03T06:48:33.744Z,98388.67
2018-08-03T06:53:26.892Z,98401.05
2018-08-03T06:58:19.864Z,98397.19
2018-08-03T07:03:12.837Z,98400.03
2018-08-03T07:08:05.976Z,98398.08
2018-08-03T07:17:57.064Z,98406.28
2018-08-03T07:22:50.268Z,98393.23
2018-08-03T07:27:43.412Z,98392.69
2018-08-03T07:32:38.971Z,98386.91
2018-08-03T07:37:31.947Z,98400.72
2018-08-03T07:42:24.994Z,98401.63
2018-08-03T07:47:18.560Z,98411.56
2018-08-03T07:52:12.146Z,98396.56
2018-08-03T07:57:05.270Z,98392.41
2018-08-03T08:01:59.643Z,98406.63
2018-08-03T08:06:53.296Z,98397.75
2018-08-03T08:11:46.375Z,98389.06
2018-08-03T08:16:39.337Z,98386.45
2018-08-03T08:21:32.610Z,98371.08
2018-08-03T08:26:25.565Z,98378.01
2018-08-03T08:31:19.188Z,98379.84
2018-08-03T08:36:14.306Z,98369.70
2018-08-03T08:41:07.346Z,98365.59
2018-08-03T08:46:00.349Z,98357.08
2018-08-03T08:50:53.893Z,98350.92
2018-08-03T08:55:47.813Z,98356.38
2018-08-03T09:00:40.904Z,98358.87
2018-08-03T09:05:34.012Z,98365.61
2018-08-03T09:10:26.920Z,98370.58
2018-08-03T09:15:19.927Z,98354.70
2018-08-03T09:20:12.855Z,98340.79
2018-08-03T09:25:06.192Z,98376.14
2018-08-03T09:29:59.831Z,98343.59
2018-08-03T09:34:52.902Z,98359.20
2018-08-03T09:39:46.040Z,98344.38
2018-08-03T09:44:39.295Z,98331.80
2018-08-03T09:49:32.327Z,98330.38
2018-08-03T09:54:25.441Z,98325.81
2018-08-03T09:59:18.634Z,98333.30
2018-08-03T10:04:11.730Z,98324.55
2018-08-03T10:09:06.508Z,98332.05
2018-08-03T10:13:59.509Z,98325.95
2018-08-03T10:18:53.281Z,98330.81
2018-08-03T10:23:46.870Z,98336.80
2018-08-03T10:28:39.916Z,98312.88
2018-08-03T10:33:32.893Z,98323.87
2018-08-03T10:38:26.759Z,98318.38
2018-08-03T10:43:19.818Z,98316.00
2018-08-03T10:48:13.247Z,98320.70
2018-08-03T10:53:06.655Z,98297.38
2018-08-03T10:57:59.667Z,98331.13
2018-08-03T11:02:53.543Z,98324.75
2018-08-03T11:07:48.504Z,98304.47
2018-08-03T11:12:42.429Z,98327.80
2018-08-03T11:17:36.322Z,98320.20
2018-08-03T11:22:30.381Z,98322.52
2018-08-03T11:27:24.227Z,98317.55
2018-08-03T11:32:17.778Z,98341.44
2018-08-03T11:37:10.712Z,98323.32
2018-08-03T11:42:03.927Z,98300.34
2018-08-03T11:46:57.165Z,98301.19
2018-08-03T11:51:50.360Z,98289.19
2018-08-03T11:56:43.916Z,98312.41
2018-08-03T12:01:37.752Z,98298.22
2018-08-03T12:06:31.083Z,98278.85
2018-08-03T12:11:24.283Z,98289.29
2018-08-03T12:16:17.709Z,98289.68
2018-08-03T12:21:10.697Z,98284.39
2018-08-03T12:26:03.689Z,98272.40
2018-08-03T12:30:59.145Z,98291.38
2018-08-03T12:35:52.234Z,98293.06
2018-08-03T12:40:45.412Z,98279.83
2018-08-03T12:45:38.528Z,98282.38
2018-08-03T12:50:32.505Z,98294.67
2018-08-03T12:55:25.731Z,98283.02
2018-08-03T13:00:18.715Z,98266.56
2018-08-03T13:05:11.965Z,98272.73
2018-08-03T13:10:06.441Z,98267.67
2018-08-03T13:14:59.657Z,98282.84
2018-08-03T13:19:54.072Z,98276.31
2018-08-03T13:24:47.366Z,98294.70
2018-08-03T13:29:40.686Z,98315.52
2018-08-03T13:34:33.812Z,98347.73
2018-08-03T13:39:27.132Z,98365.09
2018-08-03T13:44:20.309Z,98378.39
2018-08-03T13:49:13.331Z,98378.43
2018-08-03T13:54:06.682Z,98374.88
2018-08-03T13:59:01.911Z,98374.28
2018-08-03T14:03:55.449Z,98354.77
2018-08-03T14:08:49.462Z,98344.36
2018-08-03T14:13:42.609Z,98336.05
2018-08-03T14:18:35.759Z,98350.28
2018-08-03T14:23:29.523Z,98331.97
2018-08-03T14:28:22.526Z,98326.20
2018-08-03T14:33:15.812Z,98383.99
2018-08-03T14:38:08.936Z,98403.03
2018-08-03T14:43:02.558Z,98392.55
2018-08-03T14:47:55.669Z,98393.32
2018-08-03T14:52:48.979Z,98389.59
2018-08-03T14:57:42.021Z,98379.25
2018-08-03T15:02:35.077Z,98378.16
2018-08-03T15:07:28.539Z,98373.45
2018-08-03T15:12:21.530Z,98367.23
2018-08-03T15:17:14.657Z,98359.72
2018-08-03T15:22:07.645Z,98350.91
2018-08-03T15:27:01.723Z,98351.95
2018-08-03T15:31:54.842Z,98350.56
2018-08-03T15:36:55.402Z,98351.72
2018-08-03T15:41:50.396Z,98362.39
2018-08-03T15:46:44.206Z,98359.32
2018-08-03T15:51:37.134Z,98351.72
2018-08-03T15:56:30.539Z,98353.48
2018-08-03T16:01:23.535Z,98349.37
2018-08-03T16:06:16.693Z,98350.87
2018-08-03T16:11:09.700Z,98356.27
2018-08-03T16:16:02.943Z,98354.02
2018-08-03T16:20:56.248Z,98349.50
2018-08-03T16:25:49.474Z,98347.78
2018-08-03T16:30:42.915Z,98344.21
2018-08-03T16:35:36.201Z,98346.66
2018-08-03T16:40:29.394Z,98345.17
2018-08-03T16:45:22.538Z,98354.40
2018-08-03T16:50:15.751Z,98352.67
2018-08-03T16:55:08.799Z,98355.27
2018-08-03T17:00:01.835Z,98358.84
2018-08-03T17:04:54.928Z,98360.29
2018-08-03T17:09:47.983Z,98373.95
2018-08-03T17:14:41.174Z,98374.85
2018-08-03T17:19:34.258Z,98376.48
2018-08-03T17:24:27.184Z,98373.06
2018-08-03T17:29:20.282Z,98377.42
2018-08-03T17:34:13.386Z,98376.94
2018-08-03T17:39:09.322Z,98375.17
2018-08-03T17:44:02.553Z,98384.95
2018-08-03T17:48:55.584Z,98381.58
2018-08-03T17:53:48.682Z,98387.40
2018-08-03T17:58:41.940Z,98378.73
2018-08-03T18:03:35.555Z,98384.71
2018-08-03T18:08:28.657Z,98385.10
2018-08-03T18:13:21.744Z,98389.34
2018-08-03T18:18:14.802Z,98390.32
2018-08-03T18:23:07.940Z,98390.38
2018-08-03T18:28:00.987Z,98406.06
2018-08-03T18:32:54.022Z,98405.42
2018-08-03T18:37:47.108Z,98405.28
2018-08-03T18:42:40.977Z,98400.75
2018-08-03T18:47:34.111Z,98405.20
2018-08-03T18:52:42.984Z,98407.44
2018-08-03T19:10:37.037Z,98408.98
2018-08-03T19:15:30.508Z,98415.04
2018-08-03T19:20:23.535Z,98418.48
2018-08-03T19:25:16.747Z,98414.37
2018-08-03T19:30:09.850Z,98420.45
2018-08-03T19:35:02.967Z,98420.22
2018-08-03T19:39:56.128Z,98416.41
2018-08-03T19:44:49.279Z,98424.45
2018-08-03T19:49:42.383Z,98411.71
2018-08-03T19:54:35.370Z,98418.52
2018-08-03T19:59:28.618Z,98421.12
2018-08-03T20:04:21.711Z,98422.38
2018-08-03T20:09:15.209Z,98421.75
2018-08-03T20:14:08.173Z,98424.52
2018-08-03T20:19:02.819Z,98422.84
2018-08-03T20:23:55.785Z,98425.16
2018-08-03T20:28:48.796Z,98423.63
2018-08-03T20:33:41.924Z,98414.46
2018-08-03T20:38:34.884Z,98416.66
2018-08-03T20:43:27.970Z,98416.86
2018-08-03T20:48:20.921Z,98412.36
2018-08-03T20:53:13.893Z,98418.09
2018-08-03T20:58:06.813Z,98414.10
2018-08-03T21:02:59.886Z,98407.37
2018-08-03T21:07:52.942Z,98410.25
2018-08-03T21:12:45.878Z,98417.95
2018-08-03T21:17:38.935Z,98419.56
2018-08-03T21:22:32.154Z,98416.14
2018-08-03T21:27:25.417Z,98411.11
2018-08-03T21:32:18.361Z,98414.66
2018-08-03T21:37:11.703Z,98425.02
2018-08-03T21:42:05.058Z,98413.88
2018-08-03T21:46:58.219Z,98427.03
2018-08-03T21:51:51.244Z,98411.17
2018-08-03T21:56:44.257Z,98405.92
2018-08-03T22:01:37.428Z,98411.12
2018-08-03T22:06:30.521Z,98406.13
2018-08-03T22:11:23.486Z,98403.30
2018-08-03T22:16:16.470Z,98405.72
2018-08-03T22:21:09.497Z,98397.65
2018-08-03T22:26:02.589Z,98389.80
2018-08-03T22:30:55.518Z,98386.72
2018-08-03T22:35:48.509Z,98398.31
2018-08-03T22:40:41.412Z,98372.78
2018-08-03T22:45:34.333Z,98385.58
2018-08-03T22:50:27.460Z,98379.14
2018-08-03T22:55:20.459Z,98369.80
2018-08-03T23:00:13.534Z,98367.83
2018-08-03T23:05:06.702Z,98362.87
2018-08-03T23:10:00.296Z,98360.02
2018-08-03T23:14:53.376Z,98353.55
2018-08-03T23:19:46.364Z,98342.50
2018-08-03T23:24:39.487Z,98344.59
2018-08-03T23:29:32.392Z,98354.27
2018-08-03T23:34:25.612Z,98329.27
2018-08-03T23:39:18.818Z,98341.36
2018-08-03T23:44:11.808Z,98328.91
2018-08-03T23:49:04.996Z,98333.42
2018-08-03T23:53:58.023Z,98337.47
2018-08-03T23:58:51.174Z,98334.56
